Time;durP1;ratioP1;P1;durP2;ratioP2;P2;SDS_P1;SDS_P2;PMS_P1;PMS_P2;Temp;Humidity;BMP_temperature;BMP_pressure;BME280_temperature;BME280_humidity;BME280_pressure;Samples;Min_cycle;Max_cycle;Signal;HPM_P1;HPM_P2
2022/09/30 00:01:58;;;;;;;6.43;4.00;;;;;;;;;;5118657;27;20335;-70
2022/09/30 00:04:24;;;;;;;8.13;3.35;;;;;;;;;;5116055;27;20096;-70
2022/09/30 00:06:50;;;;;;;5.93;3.95;;;;;;;;;;5116809;27;20028;-70
2022/09/30 00:09:16;;;;;;;9.23;3.53;;;;;;;;;;5119881;27;20042;-71
2022/09/30 00:11:41;;;;;;;11.23;4.07;;;;;;;;;;5104860;28;20028;-71
2022/09/30 00:14:07;;;;;;;5.40;3.72;;;;;;;;;;5116349;28;20051;-70
2022/09/30 00:16:34;;;;;;;5.90;4.00;;;;;;;;;;5105600;28;20031;-70
2022/09/30 00:19:00;;;;;;;8.80;3.72;;;;;;;;;;5116845;28;20019;-70
2022/09/30 00:21:26;;;;;;;7.43;3.58;;;;;;;;;;5124150;28;20388;-70
2022/09/30 00:23:52;;;;;;;5.30;3.60;;;;;;;;;;5118124;28;20075;-70
2022/09/30 00:26:18;;;;;;;6.10;3.88;;;;;;;;;;5118504;28;20051;-71
2022/09/30 00:28:44;;;;;;;7.32;3.65;;;;;;;;;;5117031;28;20047;-70
2022/09/30 00:31:12;;;;;;;7.35;3.70;;;;;;;;;;5113508;28;20059;-71
2022/09/30 00:33:38;;;;;;;5.65;3.35;;;;;;;;;;5118030;28;20473;-70
2022/09/30 00:36:04;;;;;;;5.20;3.80;;;;;;;;;;5117088;28;20114;-70
2022/09/30 00:38:29;;;;;;;6.70;3.75;;;;;;;;;;5117422;28;20064;-70
2022/09/30 00:40:55;;;;;;;7.57;4.03;;;;;;;;;;5118975;28;20050;-71
2022/09/30 00:43:40;;;;;;;5.55;3.70;;;;;;;;;;5117015;28;20071;-70
2022/09/30 00:46:07;;;;;;;8.57;4.00;;;;;;;;;;5115564;28;20064;-70
2022/09/30 00:48:34;;;;;;;7.28;3.72;;;;;;;;;;5101031;28;20490;-71
2022/09/30 00:51:01;;;;;;;8.35;3.60;;;;;;;;;;5119081;28;20578;-70
2022/09/30 00:53:40;;;;;;;7.60;3.47;;;;;;;;;;5121948;27;20037;-71
2022/09/30 00:56:08;;;;;;;7.43;3.47;;;;;;;;;;5123370;27;20023;-70
2022/09/30 00:58:33;;;;;;;5.40;3.33;;;;;;;;;;5123694;27;20055;-70
2022/09/30 01:01:00;;;;;;;4.73;3.30;;;;;;;;;;5120335;27;20066;-71
2022/09/30 01:03:28;;;;;;;6.88;3.97;;;;;;;;;;5122918;27;20028;-68
2022/09/30 01:05:53;;;;;;;7.05;3.33;;;;;;;;;;5116383;27;20106;-68
2022/09/30 01:08:19;;;;;;;6.47;3.50;;;;;;;;;;5110048;27;20114;-68
2022/09/30 01:10:45;;;;;;;5.22;3.15;;;;;;;;;;5116992;27;20020;-68
2022/09/30 01:13:10;;;;;;;5.53;3.70;;;;;;;;;;5123215;27;20058;-68
2022/09/30 01:15:44;;;;;;;5.75;3.25;;;;;;;;;;5125816;27;20087;-68
2022/09/30 01:18:16;;;;;;;4.90;3.50;;;;;;;;;;5123182;27;20028;-70
2022/09/30 01:20:41;;;;;;;6.65;3.38;;;;;;;;;;5104749;27;20028;-70
2022/09/30 01:23:06;;;;;;;7.27;3.30;;;;;;;;;;5125539;27;20046;-70
2022/09/30 01:25:31;;;;;;;5.47;3.40;;;;;;;;;;5118486;27;20023;-70
2022/09/30 01:28:15;;;;;;;4.73;3.50;;;;;;;;;;5113683;27;20043;-69
2022/09/30 01:30:41;;;;;;;7.57;3.33;;;;;;;;;;5115669;27;20027;-70
2022/09/30 01:33:31;;;;;;;7.87;3.60;;;;;;;;;;5119042;27;20073;-70
2022/09/30 01:35:56;;;;;;;5.28;3.55;;;;;;;;;;5122738;27;20427;-70
2022/09/30 01:38:41;;;;;;;6.53;3.50;;;;;;;;;;5121130;27;20077;-69
2022/09/30 01:41:06;;;;;;;3.90;3.30;;;;;;;;;;5120864;27;20290;-70
2022/09/30 01:43:34;;;;;;;4.57;3.30;;;;;;;;;;5118885;27;20063;-70
2022/09/30 01:46:06;;;;;;;4.90;3.47;;;;;;;;;;5119433;27;20019;-70
2022/09/30 01:48:31;;;;;;;5.15;3.10;;;;;;;;;;5124978;27;20059;-70
2022/09/30 01:51:08;;;;;;;7.37;3.57;;;;;;;;;;5110546;27;20073;-70
2022/09/30 01:53:43;;;;;;;5.75;3.45;;;;;;;;;;5115511;27;20123;-70
2022/09/30 01:56:17;;;;;;;6.00;3.60;;;;;;;;;;5116660;27;20084;-70
2022/09/30 01:58:56;;;;;;;7.10;3.90;;;;;;;;;;5105304;27;20054;-70
2022/09/30 02:01:25;;;;;;;8.73;3.78;;;;;;;;;;5119008;27;20024;-68
2022/09/30 02:03:55;;;;;;;8.52;3.20;;;;;;;;;;5120448;27;20030;-71
2022/09/30 02:06:24;;;;;;;8.20;3.83;;;;;;;;;;5108718;27;20442;-70
2022/09/30 02:08:52;;;;;;;4.82;3.50;;;;;;;;;;5117222;27;20121;-70
2022/09/30 02:11:26;;;;;;;6.15;3.25;;;;;;;;;;5124096;27;20076;-70
2022/09/30 02:13:54;;;;;;;4.63;3.03;;;;;;;;;;5125648;27;20019;-70
2022/09/30 02:16:22;;;;;;;6.07;3.22;;;;;;;;;;5117928;27;20085;-70
2022/09/30 02:18:50;;;;;;;5.28;3.65;;;;;;;;;;5115540;27;20023;-70
2022/09/30 02:21:18;;;;;;;6.78;4.10;;;;;;;;;;5116647;27;20023;-70
2022/09/30 02:23:44;;;;;;;4.75;3.58;;;;;;;;;;5118718;27;20392;-70
2022/09/30 02:26:19;;;;;;;5.65;3.60;;;;;;;;;;5117772;27;20094;-70
2022/09/30 02:28:47;;;;;;;10.35;3.72;;;;;;;;;;5085000;28;20122;-70
2022/09/30 02:31:14;;;;;;;8.57;3.97;;;;;;;;;;5079501;28;20024;-70
2022/09/30 02:33:45;;;;;;;8.35;3.70;;;;;;;;;;5081531;28;20097;-69
2022/09/30 02:36:25;;;;;;;5.88;3.70;;;;;;;;;;5078626;28;20445;-69
2022/09/30 02:38:55;;;;;;;4.40;3.22;;;;;;;;;;5079365;28;20044;-69
2022/09/30 02:41:22;;;;;;;9.38;3.63;;;;;;;;;;5079659;28;20027;-69
2022/09/30 02:43:49;;;;;;;8.43;3.63;;;;;;;;;;5080821;28;20063;-69
2022/09/30 02:46:33;;;;;;;4.53;3.70;;;;;;;;;;5077760;28;20081;-69
2022/09/30 02:49:04;;;;;;;7.15;4.05;;;;;;;;;;5081329;28;20031;-69
2022/09/30 02:51:49;;;;;;;6.13;4.10;;;;;;;;;;5079975;28;20024;-69
2022/09/30 02:54:33;;;;;;;7.93;3.58;;;;;;;;;;5051620;28;20131;-69
2022/09/30 02:57:02;;;;;;;6.00;3.75;;;;;;;;;;5078532;28;20025;-69
2022/09/30 02:59:27;;;;;;;5.30;3.97;;;;;;;;;;5082435;28;20141;-70
2022/09/30 03:01:53;;;;;;;8.55;4.63;;;;;;;;;;5080647;28;20028;-69
2022/09/30 03:04:21;;;;;;;7.10;4.07;;;;;;;;;;5079860;28;20029;-69
2022/09/30 03:06:46;;;;;;;8.05;3.95;;;;;;;;;;5080143;28;20690;-68
2022/09/30 03:09:11;;;;;;;9.20;4.40;;;;;;;;;;5085888;28;20143;-67
2022/09/30 03:11:37;;;;;;;8.70;4.43;;;;;;;;;;5084250;28;20028;-67
2022/09/30 03:14:18;;;;;;;6.68;3.95;;;;;;;;;;5075739;28;20025;-69
2022/09/30 03:17:16;;;;;;;13.30;5.25;;;;;;;;;;5082331;28;20393;-69
2022/09/30 03:19:44;;;;;;;8.05;4.32;;;;;;;;;;5075473;28;20032;-70
2022/09/30 03:22:12;;;;;;;5.75;4.10;;;;;;;;;;5076886;28;20027;-69
2022/09/30 03:24:49;;;;;;;6.90;4.32;;;;;;;;;;5082913;28;20024;-70
2022/09/30 03:27:17;;;;;;;6.53;4.03;;;;;;;;;;5094759;27;20046;-70
2022/09/30 03:29:49;;;;;;;9.80;4.40;;;;;;;;;;5119150;27;20042;-70
2022/09/30 03:32:44;;;;;;;7.57;4.43;;;;;;;;;;5117158;27;20098;-70
2022/09/30 03:35:17;;;;;;;6.65;4.60;;;;;;;;;;5041515;28;20087;-69
2022/09/30 03:37:50;;;;;;;9.73;5.28;;;;;;;;;;5039661;28;20837;-70
2022/09/30 03:40:35;;;;;;;10.02;5.18;;;;;;;;;;5043459;28;20410;-70
2022/09/30 03:43:19;;;;;;;11.60;4.97;;;;;;;;;;5040878;28;20048;-70
2022/09/30 03:46:10;;;;;;;8.40;5.20;;;;;;;;;;5043513;28;20120;-70
2022/09/30 03:48:37;;;;;;;7.82;4.85;;;;;;;;;;5027793;28;20072;-70
2022/09/30 03:51:03;;;;;;;8.40;4.72;;;;;;;;;;5035474;28;20542;-70
2022/09/30 03:53:28;;;;;;;9.68;4.72;;;;;;;;;;5040795;28;20041;-70
2022/09/30 03:55:53;;;;;;;9.77;5.45;;;;;;;;;;5043410;28;20059;-68
2022/09/30 03:58:22;;;;;;;8.32;4.57;;;;;;;;;;5041930;28;20755;-70
2022/09/30 04:00:51;;;;;;;6.50;4.60;;;;;;;;;;5043816;28;20040;-70
2022/09/30 04:03:18;;;;;;;8.95;5.30;;;;;;;;;;5023452;28;20384;-70
2022/09/30 04:05:44;;;;;;;10.70;4.78;;;;;;;;;;5045695;28;20048;-71
2022/09/30 04:08:10;;;;;;;5.75;4.20;;;;;;;;;;5038820;28;20033;-71
2022/09/30 04:10:35;;;;;;;7.32;4.80;;;;;;;;;;5052077;28;20051;-69
2022/09/30 04:13:00;;;;;;;7.43;4.68;;;;;;;;;;5117816;28;20035;-69
2022/09/30 04:15:26;;;;;;;7.93;4.70;;;;;;;;;;5120818;28;20027;-69
2022/09/30 04:17:51;;;;;;;11.95;5.05;;;;;;;;;;5119279;28;20376;-68
2022/09/30 04:20:17;;;;;;;10.80;4.85;;;;;;;;;;5118435;28;20381;-69
2022/09/30 04:22:42;;;;;;;7.20;5.20;;;;;;;;;;5115328;28;20499;-68
2022/09/30 04:25:07;;;;;;;9.47;5.30;;;;;;;;;;5121127;28;20350;-68
2022/09/30 04:27:32;;;;;;;9.77;5.10;;;;;;;;;;5117518;28;20047;-68
2022/09/30 04:29:58;;;;;;;9.10;5.10;;;;;;;;;;5125706;27;20024;-69
2022/09/30 04:32:24;;;;;;;7.63;5.30;;;;;;;;;;5121636;27;20028;-69
2022/09/30 04:34:50;;;;;;;11.63;5.97;;;;;;;;;;5122338;27;20027;-69
2022/09/30 04:37:15;;;;;;;15.63;6.85;;;;;;;;;;5122033;27;20395;-68
2022/09/30 04:39:40;;;;;;;9.38;5.50;;;;;;;;;;5123576;27;20103;-68
2022/09/30 04:42:06;;;;;;;12.27;5.85;;;;;;;;;;5119720;27;21538;-69
2022/09/30 04:44:31;;;;;;;11.10;5.43;;;;;;;;;;5120904;27;20047;-68
2022/09/30 04:46:56;;;;;;;11.60;5.80;;;;;;;;;;5122166;27;20080;-68
2022/09/30 04:49:22;;;;;;;10.57;5.63;;;;;;;;;;5123594;27;20534;-68
2022/09/30 04:51:48;;;;;;;12.60;5.38;;;;;;;;;;5117911;27;20020;-68
2022/09/30 04:54:15;;;;;;;10.30;5.20;;;;;;;;;;5120895;27;20034;-68
2022/09/30 04:56:40;;;;;;;10.48;5.28;;;;;;;;;;5122780;27;20023;-68
2022/09/30 04:59:05;;;;;;;12.57;5.72;;;;;;;;;;5130355;27;20377;-69
2022/09/30 05:01:31;;;;;;;8.03;5.60;;;;;;;;;;5122989;27;20144;-69
2022/09/30 05:03:57;;;;;;;13.40;5.70;;;;;;;;;;5121560;27;20283;-69
2022/09/30 05:06:22;;;;;;;12.80;5.53;;;;;;;;;;5119038;27;20068;-69
2022/09/30 05:08:47;;;;;;;13.17;6.27;;;;;;;;;;5119649;27;20016;-68
2022/09/30 05:11:14;;;;;;;12.48;6.05;;;;;;;;;;5122091;27;20714;-68
2022/09/30 05:13:39;;;;;;;11.48;6.80;;;;;;;;;;5118402;27;20102;-69
2022/09/30 05:16:05;;;;;;;10.18;6.43;;;;;;;;;;5120469;27;20107;-70
2022/09/30 05:18:32;;;;;;;11.70;6.70;;;;;;;;;;5120571;27;20124;-70
2022/09/30 05:20:58;;;;;;;12.13;6.70;;;;;;;13.84;nan;99887.63;5115006;27;20401;-69
2022/09/30 05:23:24;;;;;;;18.73;7.65;;;;;;;;;;5115830;27;20027;-69
2022/09/30 05:25:50;;;;;;;13.82;7.65;;;;;;;;;;5120566;27;20026;-69
2022/09/30 05:28:16;;;;;;;15.85;7.90;;;;;;;;;;5121026;27;20045;-68
2022/09/30 05:30:42;;;;;;;13.98;8.07;;;;;;;13.88;nan;99933.69;5118173;28;20039;-69
2022/09/30 05:33:08;;;;;;;15.50;7.75;;;;;;;;;;5119122;28;20022;-68
2022/09/30 05:35:33;;;;;;;14.82;7.32;;;;;;;;;;5119567;28;20037;-69
2022/09/30 05:37:59;;;;;;;13.35;7.57;;;;;;;;;;5119309;28;20468;-69
2022/09/30 05:40:24;;;;;;;14.25;7.45;;;;;;;;;;5114905;28;20027;-69
2022/09/30 05:42:49;;;;;;;12.17;7.30;;;;;;;;;;5120782;28;20433;-69
2022/09/30 05:45:14;;;;;;;14.33;6.80;;;;;;;;;;5122999;28;20030;-69
2022/09/30 05:47:41;;;;;;;11.85;7.30;;;;;;;;;;5117724;28;20328;-69
2022/09/30 05:50:06;;;;;;;14.10;7.30;;;;;;;;;;5116052;28;20678;-68
2022/09/30 05:52:31;;;;;;;14.57;7.13;;;;;;;;;;5118349;28;20030;-69
2022/09/30 05:54:59;;;;;;;14.00;7.60;;;;;;;;;;5123783;28;20027;-69
2022/09/30 05:57:25;;;;;;;14.40;7.93;;;;;;;;;;5120389;28;20501;-68
2022/09/30 05:59:51;;;;;;;18.45;7.35;;;;;;;;;;5116116;28;20084;-68
2022/09/30 06:02:16;;;;;;;14.70;8.07;;;;;;;;;;5120511;28;20027;-69
2022/09/30 06:04:41;;;;;;;13.73;9.43;;;;;;;;;;5119935;28;20122;-68
2022/09/30 06:07:06;;;;;;;13.80;9.00;;;;;;;;;;5121162;28;20019;-68
2022/09/30 06:09:32;;;;;;;12.13;8.57;;;;;;;;;;5119355;28;20287;-68
2022/09/30 06:11:59;;;;;;;14.97;9.80;;;;;;;;;;5115137;28;20023;-69
2022/09/30 06:14:24;;;;;;;16.10;10.25;;;;;;;;;;5115327;28;20038;-68
2022/09/30 06:16:49;;;;;;;17.60;10.52;;;;;;;;;;5121087;28;20399;-68
2022/09/30 06:19:15;;;;;;;15.33;9.43;;;;;;;;;;5116436;28;20103;-69
2022/09/30 06:21:40;;;;;;;20.07;9.97;;;;;;;;;;5101650;28;20694;-69
2022/09/30 06:24:08;;;;;;;19.63;10.35;;;;;;;;;;5116375;28;20282;-68
2022/09/30 06:26:33;;;;;;;16.20;10.13;;;;;;;;;;5078010;28;1140087;-68
2022/09/30 06:28:58;;;;;;;17.83;10.43;;;;;;;;;;5115794;27;20059;-68
2022/09/30 06:31:24;;;;;;;19.80;10.50;;;;;;;;;;5114867;27;20291;-70
2022/09/30 06:33:51;;;;;;;17.25;9.60;;;;;;;;;;5116926;27;20213;-70
2022/09/30 06:36:16;;;;;;;15.30;9.35;;;;;;;;;;5120537;27;20059;-70
2022/09/30 06:38:41;;;;;;;14.97;9.40;;;;;;;;;;5119281;27;20127;-70
2022/09/30 06:41:07;;;;;;;17.93;9.67;;;;;;;14.45;nan;100059.19;5116025;27;20028;-70
2022/09/30 06:43:32;;;;;;;15.65;9.23;;;;;;;;;;5117484;27;20505;-70
2022/09/30 06:45:58;;;;;;;26.70;10.65;;;;;;;;;;5116501;27;20717;-70
2022/09/30 06:48:23;;;;;;;16.20;9.75;;;;;;;14.50;nan;100080.41;5119617;27;20039;-70
2022/09/30 06:50:54;;;;;;;17.30;10.02;;;;;;;;;;5116470;27;20031;-70
2022/09/30 06:53:19;;;;;;;23.67;10.23;;;;;;;;;;5115423;27;20054;-70
2022/09/30 06:55:45;;;;;;;20.27;10.00;;;;;;;;;;5117842;27;20046;-70
2022/09/30 06:58:13;;;;;;;20.17;10.85;;;;;;;;;;5118806;27;20023;-70
2022/09/30 07:00:38;;;;;;;27.13;14.75;;;;;;;;;;5121583;27;20019;-70
2022/09/30 07:03:08;;;;;;;27.05;15.13;;;;;;;;;;5119542;27;20018;-69
2022/09/30 07:05:33;;;;;;;22.73;13.57;;;;;;;;;;5120610;27;20065;-69
2022/09/30 07:07:59;;;;;;;22.17;13.23;;;;;;;;;;5110799;27;20055;-72
2022/09/30 07:10:24;;;;;;;19.50;11.63;;;;;;;;;;5118748;27;20293;-72
2022/09/30 07:12:52;;;;;;;19.97;10.77;;;;;;;;;;5116906;27;20359;-71
2022/09/30 07:15:20;;;;;;;15.60;9.93;;;;;;;;;;5123253;27;20102;-72
2022/09/30 07:17:49;;;;;;;16.42;9.88;;;;;;;;;;5122063;27;20020;-72
2022/09/30 07:20:14;;;;;;;19.90;10.23;;;;;;;;;;5115230;27;20107;-71
2022/09/30 07:22:40;;;;;;;15.27;9.60;;;;;;;;;;5102055;27;20118;-70
2022/09/30 07:25:05;;;;;;;18.67;8.15;;;;;;;;;;5117891;27;20101;-72
2022/09/30 07:27:32;;;;;;;15.75;7.82;;;;;;;15.29;nan;100086.47;5118182;27;20054;-72
2022/09/30 07:29:58;;;;;;;21.17;9.68;;;;;;;;;;5120760;27;20026;-71
2022/09/30 07:32:24;;;;;;;14.63;7.85;;;;;;;;;;5121378;27;20047;-69
2022/09/30 07:34:50;;;;;;;12.23;6.18;;;;;;;;;;5122602;27;20077;-71
2022/09/30 07:37:17;;;;;;;9.48;5.55;;;;;;;;;;5108659;27;20022;-72
2022/09/30 07:39:43;;;;;;;13.23;5.68;;;;;;;;;;5121497;27;20102;-70
2022/09/30 07:42:10;;;;;;;8.57;5.90;;;;;;;;;;5119472;27;20085;-70
2022/09/30 07:44:40;;;;;;;11.57;5.68;;;;;;;;;;5122075;27;20060;-71
2022/09/30 07:47:05;;;;;;;11.93;6.97;;;;;;;;;;5123243;27;20084;-70
2022/09/30 07:49:31;;;;;;;10.65;5.43;;;;;;;;;;5117991;27;20703;-71
2022/09/30 07:51:57;;;;;;;8.00;3.90;;;;;;;;;;5104395;27;20385;-70
2022/09/30 07:54:24;;;;;;;7.90;3.63;;;;;;;;;;5118164;27;20287;-71
2022/09/30 07:56:50;;;;;;;6.97;4.25;;;;;;;;;;5112816;27;20034;-71
2022/09/30 07:59:15;;;;;;;5.90;3.60;;;;;;;;;;5110842;27;20027;-70
2022/09/30 08:01:41;;;;;;;6.40;4.30;;;;;;;;;;5120817;27;20388;-70
2022/09/30 08:04:07;;;;;;;8.48;3.88;;;;;;;;;;5118228;27;20019;-70
2022/09/30 08:06:36;;;;;;;5.82;3.65;;;;;;;;;;5120142;27;20027;-71
2022/09/30 08:09:01;;;;;;;12.30;4.07;;;;;;;;;;5118884;27;20043;-71
2022/09/30 08:11:27;;;;;;;9.80;4.32;;;;;;;;;;5118774;27;20031;-71
2022/09/30 08:13:53;;;;;;;9.82;3.83;;;;;;;;;;5120446;27;20050;-71
2022/09/30 08:16:19;;;;;;;21.10;9.77;;;;;;;;;;5098185;28;20023;-72
2022/09/30 08:18:44;;;;;;;18.50;5.25;;;;;;;;;;5117928;28;20042;-68
2022/09/30 08:21:10;;;;;;;18.70;7.72;;;;;;;;;;5119579;28;20055;-69
2022/09/30 08:23:35;;;;;;;17.30;6.77;;;;;;;;;;5119351;28;20023;-70
2022/09/30 08:26:02;;;;;;;9.53;4.67;;;;;;;;;;5118109;28;20065;-67
2022/09/30 08:28:30;;;;;;;9.50;3.88;;;;;;;;;;5119918;28;20297;-69
2022/09/30 08:30:55;;;;;;;8.68;4.30;;;;;;;16.54;nan;100172.75;5115950;28;20023;-72
2022/09/30 08:33:20;;;;;;;5.78;4.10;;;;;;;;;;5119626;28;20030;-72
2022/09/30 08:35:46;;;;;;;8.27;3.60;;;;;;;;;;5113223;28;20031;-72
2022/09/30 08:38:11;;;;;;;5.82;3.90;;;;;;;;;;5117268;28;20023;-72
2022/09/30 08:40:46;;;;;;;6.73;3.73;;;;;;;;;;5121896;28;20114;-72
2022/09/30 08:43:14;;;;;;;1366.15;263.70;;;;;;;;;;5118979;28;20279;-72
2022/09/30 08:45:44;;;;;;;16.92;13.18;;;;;;;;;;5117105;28;20022;-72
2022/09/30 08:48:18;;;;;;;7.72;3.92;;;;;;;;;;5116049;28;20027;-72
2022/09/30 08:51:19;;;;;;;6.60;3.45;;;;;;;;;;5115003;28;20055;-72
2022/09/30 08:53:45;;;;;;;3.65;2.75;;;;;;;;;;5025506;28;20112;-72
2022/09/30 08:56:16;;;;;;;6.38;3.35;;;;;;;;;;5025273;28;20113;-73
2022/09/30 08:58:43;;;;;;;5.93;2.60;;;;;;;;;;5021542;28;20040;-73
2022/09/30 09:01:37;;;;;;;16.67;5.53;;;;;;;;;;5018653;28;20566;-72
2022/09/30 09:04:04;;;;;;;127.63;42.00;;;;;;;;;;5008958;28;20037;-69
2022/09/30 09:06:38;;;;;;;266.95;100.97;;;;;;;;;;5029505;28;20587;-72
2022/09/30 09:09:15;;;;;;;473.27;234.02;;;;;;;;;;5020028;28;20616;-73
2022/09/30 09:11:40;;;;;;;39.42;20.10;;;;;;;;;;5021996;28;20032;-74
2022/09/30 09:14:12;;;;;;;10.07;5.85;;;;;;;;;;5027317;28;20049;-73
2022/09/30 09:17:00;;;;;;;8.25;3.97;;;;;;;;;;5027868;28;20043;-69
2022/09/30 09:19:28;;;;;;;8.30;3.43;;;;;;;;;;5022150;28;20048;-69
2022/09/30 09:21:59;;;;;;;6.10;2.92;;;;;;;;;;5030958;28;20624;-69
2022/09/30 09:24:29;;;;;;;6.80;3.70;;;;;;;;;;5033014;28;20088;-73
2022/09/30 09:26:56;;;;;;;7.32;3.38;;;;;;;;;;5046223;27;20072;-72
2022/09/30 09:29:33;;;;;;;5.50;3.38;;;;;;;;;;5106335;27;20848;-72
2022/09/30 09:32:00;;;;;;;4.88;3.65;;;;;;;;;;5119306;27;20023;-72
2022/09/30 09:34:29;;;;;;;8.95;3.20;;;;;;;;;;5103054;27;20034;-72
2022/09/30 09:37:06;;;;;;;7.03;3.97;;;;;;;;;;5120390;27;20100;-72
2022/09/30 09:39:42;;;;;;;6.78;3.10;;;;;;;;;;5124663;27;20027;-72
2022/09/30 09:42:09;;;;;;;5.03;3.40;;;;;;;;;;5121741;27;20486;-73
2022/09/30 09:44:55;;;;;;;7.00;3.65;;;;;;;18.56;nan;100176.53;5116836;27;20054;-72
2022/09/30 09:47:20;;;;;;;4.72;3.15;;;;;;;18.54;nan;100128.81;5112399;27;20042;-72
2022/09/30 09:49:56;;;;;;;6.68;3.40;;;;;;;18.64;nan;100157.22;5122303;27;20027;-71
2022/09/30 09:52:33;;;;;;;5.22;3.33;;;;;;;;;;5102004;27;20019;-72
2022/09/30 09:54:59;;;;;;;8.27;3.15;;;;;;;;;;5117663;27;20024;-72
2022/09/30 09:57:30;;;;;;;5.57;3.20;;;;;;;18.69;nan;100181.94;5107650;27;20390;-72
2022/09/30 10:01:09;;;;;;;7.13;3.92;;;;;;;;;;5102922;27;20092;-71
2022/09/30 10:03:00;;;;;;;6.35;3.60;;;;;;;;;;5116244;27;20039;-72
2022/09/30 10:05:28;;;;;;;7.60;4.28;;;;;;;19.02;nan;100158.13;5122387;27;20034;-72
2022/09/30 10:08:15;;;;;;;8.20;3.83;;;;;;;19.12;nan;100151.84;5105209;27;20392;-73
2022/09/30 10:10:56;;;;;;;9.10;4.28;;;;;;;19.24;nan;100146.88;5116326;27;20046;-72
2022/09/30 10:13:28;;;;;;;5.78;3.90;;;;;;;;;;5099205;27;20027;-72
2022/09/30 10:15:55;;;;;;;4.95;3.97;;;;;;;19.38;nan;100138.94;5098969;28;20549;-72
2022/09/30 10:18:24;;;;;;;7.45;4.15;;;;;;;19.48;nan;100157.47;5100935;27;20598;-71
2022/09/30 10:20:54;;;;;;;5.50;4.10;;;;;;;;;;5098234;27;20120;-73
2022/09/30 10:23:29;;;;;;;7.88;4.45;;;;;;;19.69;nan;100154.53;5122023;27;20026;-72
2022/09/30 10:26:15;;;;;;;7.43;4.68;;;;;;;19.66;nan;100134.50;5101990;28;20572;-71
2022/09/30 10:29:00;;;;;;;6.53;4.28;;;;;;;;;;5073293;28;20048;-71
2022/09/30 10:31:29;;;;;;;7.50;4.90;;;;;;;19.97;nan;100166.09;5077055;28;20036;-71
2022/09/30 10:33:59;;;;;;;7.38;4.72;;;;;;;20.00;nan;100170.84;5077970;28;20513;-71
2022/09/30 10:36:30;;;;;;;7.88;4.45;;;;;;;;;;5082581;28;20115;-71
2022/09/30 10:39:04;;;;;;;6.03;4.28;;;;;;;20.21;nan;100155.25;5079984;28;20127;-71
2022/09/30 10:41:31;;;;;;;5.35;4.20;;;;;;;20.30;nan;100160.69;5081142;28;20534;-72
2022/09/30 10:43:59;;;;;;;6.75;3.90;;;;;;;;;;5076543;28;20028;-71
2022/09/30 10:46:31;;;;;;;8.27;4.22;;;;;;;20.24;nan;100090.50;5075772;28;20036;-71
2022/09/30 10:48:57;;;;;;;7.93;4.50;;;;;;;;;;5075654;28;20028;-71
2022/09/30 10:51:25;;;;;;;6.50;4.68;;;;;;;;;;5074985;28;20393;-71
2022/09/30 10:53:50;;;;;;;5.38;4.15;;;;;;;20.56;nan;100172.53;5071135;28;20059;-71
2022/09/30 10:56:42;;;;;;;9.20;4.78;;;;;;;;;;5080851;28;20024;-71
2022/09/30 10:59:35;;;;;;;8.63;4.32;;;;;;;20.76;nan;100173.25;5077055;28;20047;-71
2022/09/30 11:02:30;;;;;;;8.02;4.43;;;;;;;20.81;nan;100170.47;5072938;28;20071;-66
2022/09/30 11:05:02;;;;;;;8.32;4.43;;;;;;;20.91;nan;100186.31;5071159;28;20471;-71
2022/09/30 11:07:56;;;;;;;8.35;4.50;;;;;;;20.85;nan;100158.03;5083551;28;20519;-71
2022/09/30 11:10:40;;;;;;;5.85;4.28;;;;;;;21.06;nan;100184.41;5060735;28;20055;-71
2022/09/30 11:13:20;;;;;;;8.70;3.90;;;;;;;21.15;nan;100206.72;5074743;28;20028;-71
2022/09/30 11:16:02;;;;;;;7.57;3.95;;;;;;;21.24;nan;100162.06;5076045;28;20035;-71
2022/09/30 11:18:42;;;;;;;9.30;4.35;;;;;;;21.22;nan;100166.91;5073294;28;20066;-71
2022/09/30 11:21:35;;;;;;;4.72;3.75;;;;;;;21.42;nan;100193.25;5076525;28;20486;-71
2022/09/30 11:24:12;;;;;;;7.82;3.97;;;;;;;21.55;nan;100194.34;5074884;28;20027;-70
2022/09/30 11:26:47;;;;;;;8.88;3.95;;;;;;;21.61;nan;100214.53;5085801;27;20056;-72
2022/09/30 11:29:24;;;;;;;9.52;3.80;;;;;;;21.66;nan;100206.38;5115083;27;20080;-71
2022/09/30 11:32:00;;;;;;;7.10;3.60;;;;;;;21.73;nan;100195.25;5115739;27;20055;-71
2022/09/30 11:35:16;;;;;;;5.95;3.63;;;;;;;21.84;nan;100223.41;5117120;27;20031;-70
2022/09/30 11:37:56;;;;;;;5.72;4.22;;;;;;;21.94;nan;100224.25;5063794;28;20031;-71
2022/09/30 11:40:31;;;;;;;8.35;3.60;;;;;;;22.04;nan;100229.34;5115164;27;20098;-72
2022/09/30 11:43:20;;;;;;;5.88;3.53;;;;;;;22.10;nan;100220.09;5122966;27;20025;-71
2022/09/30 11:46:23;;;;;;;7.75;3.38;;;;;;;22.19;nan;100226.28;5118117;27;20038;-70
2022/09/30 11:49:07;;;;;;;6.13;3.13;;;;;;;22.26;nan;100232.03;5120825;27;20023;-71
2022/09/30 11:51:45;;;;;;;4.07;3.20;;;;;;;22.36;nan;100225.63;5122109;27;20092;-72
2022/09/30 11:54:49;;;;;;;5.53;3.30;;;;;;;22.40;nan;100236.53;5104915;27;20023;-72
2022/09/30 11:57:30;;;;;;;8.98;3.72;;;;;;;22.48;nan;100222.34;5064185;28;20041;-72
2022/09/30 12:00:06;;;;;;;5.47;3.10;;;;;;;22.55;nan;100222.72;5060878;28;20036;-72
2022/09/30 12:02:39;;;;;;;5.40;3.40;;;;;;;22.67;nan;100295.41;5064872;28;20032;-72
2022/09/30 12:05:25;;;;;;;5.25;3.03;;;;;;;;;;5064647;28;20024;-72
2022/09/30 12:08:01;;;;;;;5.68;3.17;;;;;;;22.82;nan;100231.66;5022587;28;20045;-72
2022/09/30 12:10:51;;;;;;;7.18;3.63;;;;;;;22.90;nan;100236.28;5062532;28;20036;-72
2022/09/30 12:13:25;;;;;;;5.57;3.50;;;;;;;22.85;nan;100191.56;5049594;28;20127;-73
2022/09/30 12:15:54;;;;;;;3.88;2.70;;;;;;;23.05;nan;100209.00;5066492;28;20394;-71
2022/09/30 12:18:38;;;;;;;4.35;2.90;;;;;;;23.07;nan;100217.53;5060436;28;20016;-71
2022/09/30 12:21:22;;;;;;;5.35;3.20;;;;;;;23.17;nan;100204.91;5062008;28;20045;-72
2022/09/30 12:23:58;;;;;;;6.13;2.95;;;;;;;23.27;nan;100194.66;5055961;28;20035;-72
2022/09/30 12:26:24;;;;;;;5.85;2.85;;;;;;;23.39;nan;100217.41;5065131;28;20036;-72
2022/09/30 12:32:08;;;;;;;4.82;2.70;;;;;;;23.06;nan;100135.41;5062741;28;20043;-73
2022/09/30 12:34:42;;;;;;;4.60;2.30;;;;;;;23.57;nan;100216.31;5118473;28;20516;-73
2022/09/30 12:37:19;;;;;;;4.90;2.53;;;;;;;23.64;nan;100221.22;5100538;28;20069;-73
2022/09/30 12:40:21;;;;;;;3.50;2.00;;;;;;;23.71;nan;100225.03;5112702;28;20019;-72
2022/09/30 12:42:57;;;;;;;2.88;1.88;;;;;;;23.78;nan;100219.19;5116984;28;20905;-72
2022/09/30 12:45:44;;;;;;;6.13;2.03;;;;;;;23.85;nan;100230.25;5105316;28;20594;-72
2022/09/30 12:48:15;;;;;;;3.10;1.60;;;;;;;23.63;nan;100241.94;5119060;28;20034;-72
2022/09/30 12:50:48;;;;;;;4.90;1.73;;;;;;;;;;5121385;27;20043;-73
2022/09/30 12:53:21;;;;;;;3.03;1.85;;;;;;;23.72;nan;100180.88;5123744;27;20045;-72
2022/09/30 12:55:47;;;;;;;3.53;1.73;;;;;;;23.80;nan;100208.91;5107530;27;20023;-73
2022/09/30 12:58:20;;;;;;;3.55;1.50;;;;;;;;;;5124985;27;20484;-72
2022/09/30 13:00:59;;;;;;;2.00;1.45;;;;;;;;;;5120256;27;20035;-72
2022/09/30 13:03:25;;;;;;;4.05;1.60;;;;;;;23.85;nan;100199.88;5123202;27;20480;-71
2022/09/30 13:06:05;;;;;;;3.33;1.63;;;;;;;23.81;nan;100180.91;5124297;27;20031;-72
2022/09/30 13:08:56;;;;;;;6.72;1.95;;;;;;;23.97;nan;100190.06;5115542;27;20537;-73
2022/09/30 13:11:32;;;;;;;3.00;1.50;;;;;;;24.14;nan;100207.28;5025194;28;20443;-72
2022/09/30 13:14:11;;;;;;;4.60;1.75;;;;;;;24.25;nan;100213.88;5024719;28;20075;-73
2022/09/30 13:16:59;;;;;;;4.47;1.60;;;;;;;24.29;nan;100220.19;5020136;28;20426;-72
2022/09/30 13:19:39;;;;;;;6.97;1.90;;;;;;;24.31;nan;100242.19;5026224;28;20057;-72
2022/09/30 13:22:19;;;;;;;3.03;1.25;;;;;;;24.31;nan;100217.97;5029796;28;20417;-72
2022/09/30 13:24:57;;;;;;;5.93;1.67;;;;;;;24.33;nan;100231.13;5027283;28;20026;-71
2022/09/30 13:27:40;;;;;;;3.30;1.50;;;;;;;24.28;nan;100237.47;5025913;28;20041;-71
2022/09/30 13:30:14;;;;;;;4.82;1.60;;;;;;;24.28;nan;100234.78;5020637;28;20037;-72
2022/09/30 13:32:56;;;;;;;1.95;1.40;;;;;;;24.27;nan;100235.88;5028243;28;20028;-72
2022/09/30 13:35:31;;;;;;;5.43;1.48;;;;;;;24.31;nan;100236.03;5024183;28;20045;-71
2022/09/30 13:38:11;;;;;;;3.58;1.23;;;;;;;24.35;nan;100237.75;5022866;28;20501;-72
2022/09/30 13:40:45;;;;;;;2.42;1.20;;;;;;;24.23;nan;100185.69;5023057;28;20483;-72
2022/09/30 13:43:19;;;;;;;1.95;1.00;;;;;;;24.31;nan;100241.41;5021347;28;20034;-71
2022/09/30 13:45:47;;;;;;;3.20;1.13;;;;;;;;;;5027388;28;20036;-72
2022/09/30 13:48:21;;;;;;;2.65;1.20;;;;;;;24.28;nan;100215.94;5065587;27;21089;-71
2022/09/30 13:50:49;;;;;;;1.42;0.88;;;;;;;24.20;nan;100238.25;5120955;27;20477;-71
2022/09/30 13:53:25;;;;;;;2.08;0.95;;;;;;;24.21;nan;100250.63;5117947;27;20027;-72
2022/09/30 13:55:52;;;;;;;3.10;1.00;;;;;;;24.21;nan;100223.72;5105432;27;20019;-72
2022/09/30 13:58:48;;;;;;;2.67;0.95;;;;;;;24.15;nan;100257.28;5097173;27;20484;-72
2022/09/30 14:01:55;;;;;;;4.95;0.90;;;;;;;24.15;nan;100246.50;5118075;27;20026;-71
2022/09/30 14:04:29;;;;;;;2.40;1.23;;;;;;;24.13;nan;100257.56;5045347;28;20034;-70
2022/09/30 14:07:40;;;;;;;4.00;1.15;;;;;;;24.07;nan;100247.31;5043401;28;20035;-71
2022/09/30 14:10:31;;;;;;;4.18;1.08;;;;;;;23.93;nan;100210.63;5044230;28;20033;-71